createdAt,value
2023-05-14T00:00:47.441Z,96.96
2023-05-14T00:03:49.675Z,96.54
2023-05-14T00:06:51.947Z,96.98
2023-05-14T00:09:54.075Z,97.09
2023-05-14T00:12:56.252Z,96.68
2023-05-14T00:15:58.588Z,96.79
2023-05-14T00:19:01.721Z,96.92
2023-05-14T00:22:04.024Z,96.96
2023-05-14T00:25:07.862Z,97.00
2023-05-14T00:28:16.214Z,97.13
2023-05-14T00:31:19.346Z,96.74
2023-05-14T00:34:21.821Z,97.25
2023-05-14T00:37:24.006Z,96.84
2023-05-14T00:40:27.305Z,96.92
2023-05-14T00:43:29.589Z,96.69
2023-05-14T00:46:32.227Z,97.06
2023-05-14T00:49:36.386Z,96.99
2023-05-14T00:52:44.312Z,96.95
2023-05-14T00:55:48.196Z,97.07
2023-05-14T00:58:50.356Z,97.08
2023-05-14T01:01:53.012Z,97.28
2023-05-14T01:04:55.889Z,97.35
2023-05-14T01:08:07.235Z,96.28
2023-05-14T01:11:19.877Z,96.28
2023-05-14T01:14:32.862Z,96.26
2023-05-14T01:17:42.594Z,96.50
2023-05-14T01:20:50.845Z,96.68
2023-05-14T01:23:53.080Z,96.46
2023-05-14T01:27:04.334Z,96.92
2023-05-14T01:30:25.300Z,96.92
2023-05-14T01:33:31.096Z,97.08
2023-05-14T01:36:49.294Z,97.05
2023-05-14T01:40:09.314Z,96.59
2023-05-14T01:43:30.602Z,96.94
2023-05-14T01:46:39.653Z,96.84
2023-05-14T01:49:44.105Z,96.80
2023-05-14T01:52:48.893Z,96.48
2023-05-14T01:55:51.298Z,96.96
2023-05-14T01:58:53.530Z,96.64
2023-05-14T02:01:56.411Z,96.77
2023-05-14T02:04:58.644Z,96.69
2023-05-14T02:08:01.009Z,96.38
2023-05-14T02:11:03.406Z,96.10
2023-05-14T02:14:06.014Z,95.93
2023-05-14T02:17:09.146Z,96.45
2023-05-14T02:20:11.811Z,96.13
2023-05-14T02:23:14.081Z,96.61
2023-05-14T02:26:18.009Z,96.31
2023-05-14T02:29:20.621Z,96.16
2023-05-14T02:32:22.964Z,96.09
2023-05-14T02:35:27.082Z,96.57
2023-05-14T02:38:30.523Z,96.15
2023-05-14T02:41:32.710Z,96.43
2023-05-14T02:44:34.813Z,96.13
2023-05-14T02:47:38.247Z,96.33
2023-05-14T02:50:40.636Z,96.16
2023-05-14T02:53:43.106Z,96.44
2023-05-14T02:56:45.473Z,96.14
2023-05-14T02:59:47.687Z,96.03
2023-05-14T03:02:50.474Z,96.13
2023-05-14T03:06:02.081Z,96.07
2023-05-14T03:09:18.191Z,96.40
2023-05-14T03:12:24.186Z,96.18
2023-05-14T03:15:26.846Z,95.95
2023-05-14T03:18:30.910Z,96.27
2023-05-14T03:21:33.306Z,96.30
2023-05-14T03:24:39.343Z,96.16
2023-05-14T03:27:41.911Z,95.78
2023-05-14T03:30:44.058Z,95.76
2023-05-14T03:33:46.828Z,95.59
2023-05-14T03:36:49.008Z,96.23
2023-05-14T03:39:51.358Z,95.79
2023-05-14T03:42:53.553Z,95.95
2023-05-14T03:45:55.894Z,95.58
2023-05-14T03:48:58.423Z,95.97
2023-05-14T03:52:00.783Z,95.58
2023-05-14T03:55:03.032Z,95.96
2023-05-14T03:58:11.141Z,95.54
2023-05-14T04:01:13.357Z,95.68
2023-05-14T04:04:15.663Z,95.51
2023-05-14T04:07:18.700Z,96.16
2023-05-14T04:10:20.852Z,95.49
2023-05-14T04:13:23.108Z,95.59
2023-05-14T04:16:25.277Z,95.67
2023-05-14T04:19:27.514Z,95.75
2023-05-14T04:22:29.552Z,95.51
2023-05-14T04:25:31.776Z,95.77
2023-05-14T04:28:33.902Z,95.89
2023-05-14T04:31:36.808Z,95.33
2023-05-14T04:34:38.995Z,95.29
2023-05-14T04:37:41.672Z,95.36
2023-05-14T04:40:43.825Z,95.24
2023-05-14T04:43:49.991Z,95.49
2023-05-14T04:46:53.563Z,95.12
2023-05-14T04:49:55.958Z,94.84
2023-05-14T04:52:58.727Z,94.85
2023-05-14T04:56:00.995Z,95.18
2023-05-14T04:59:03.123Z,94.62
2023-05-14T05:02:05.327Z,94.71
2023-05-14T05:05:07.764Z,94.84
2023-05-14T05:08:12.075Z,95.06
2023-05-14T05:11:15.192Z,94.60
2023-05-14T05:14:18.370Z,94.23
2023-05-14T05:17:22.151Z,94.46
2023-05-14T05:20:25.619Z,94.19
2023-05-14T05:23:28.760Z,94.15
2023-05-14T05:26:32.180Z,94.25
2023-05-14T05:29:35.091Z,93.99
2023-05-14T05:32:44.781Z,94.14
2023-05-14T05:36:00.254Z,93.80
2023-05-14T05:39:22.764Z,93.27
2023-05-14T05:42:27.090Z,93.34
2023-05-14T05:45:29.617Z,92.90
2023-05-14T05:48:43.887Z,92.96
2023-05-14T05:51:54.576Z,92.93
2023-05-14T05:55:11.617Z,93.15
2023-05-14T05:58:18.208Z,93.28
2023-05-14T06:01:30.672Z,93.12
2023-05-14T06:04:47.752Z,92.98
2023-05-14T06:07:57.259Z,92.59
2023-05-14T06:11:01.149Z,92.41
2023-05-14T06:14:03.799Z,93.00
2023-05-14T06:17:06.174Z,92.72
2023-05-14T06:20:09.392Z,92.95
2023-05-14T06:23:13.066Z,92.95
2023-05-14T06:26:16.696Z,92.59
2023-05-14T06:29:20.324Z,93.19
2023-05-14T06:32:24.781Z,93.03
2023-05-14T06:35:27.268Z,92.71
2023-05-14T06:38:33.623Z,92.84
2023-05-14T06:41:37.003Z,93.15
2023-05-14T06:44:39.271Z,93.31
2023-05-14T06:47:41.701Z,93.32
2023-05-14T06:50:44.580Z,93.50
2023-05-14T06:53:51.211Z,93.14
2023-05-14T06:56:54.906Z,93.65
2023-05-14T07:00:03.035Z,93.59
2023-05-14T07:03:13.911Z,93.74
2023-05-14T07:06:23.853Z,93.59
2023-05-14T07:09:43.730Z,93.50
2023-05-14T07:12:48.483Z,94.04
2023-05-14T07:15:51.857Z,94.07
2023-05-14T07:18:54.527Z,93.96
2023-05-14T07:21:58.110Z,93.76
2023-05-14T07:25:00.531Z,94.27
2023-05-14T07:28:03.040Z,93.91
2023-05-14T07:31:09.896Z,94.30
2023-05-14T07:34:14.154Z,93.90
2023-05-14T07:37:25.252Z,94.43
2023-05-14T07:40:41.861Z,94.17
2023-05-14T07:43:47.788Z,94.02
2023-05-14T07:46:51.846Z,94.29
2023-05-14T07:49:57.096Z,94.36
2023-05-14T07:52:59.676Z,94.67
2023-05-14T07:56:03.094Z,94.15
2023-05-14T07:59:07.406Z,94.37
2023-05-14T08:02:13.482Z,94.50
2023-05-14T08:05:19.404Z,94.78
2023-05-14T08:08:32.670Z,94.69
2023-05-14T08:11:51.284Z,94.38
2023-05-14T08:14:55.838Z,94.72
2023-05-14T08:18:04.082Z,94.63
2023-05-14T08:21:06.770Z,94.62
2023-05-14T08:24:09.347Z,95.08
2023-05-14T08:27:14.186Z,94.91
2023-05-14T08:30:19.482Z,94.96
2023-05-14T08:33:22.810Z,95.21
2023-05-14T08:36:25.594Z,95.21
2023-05-14T08:39:28.233Z,95.08
2023-05-14T08:42:32.139Z,94.75
2023-05-14T08:45:35.782Z,95.03
2023-05-14T08:48:43.869Z,94.22
2023-05-14T08:51:51.198Z,94.59
2023-05-14T08:54:54.557Z,94.26
2023-05-14T08:57:57.343Z,94.86
2023-05-14T09:01:00.640Z,94.47
2023-05-14T09:04:08.881Z,94.21
2023-05-14T09:07:11.895Z,94.26
2023-05-14T09:10:16.018Z,94.96
2023-05-14T09:13:18.643Z,94.88
2023-05-14T09:16:22.157Z,94.93
2023-05-14T09:19:24.736Z,95.01
2023-05-14T09:22:32.175Z,94.70
2023-05-14T09:25:36.832Z,94.64
2023-05-14T09:28:42.332Z,94.55
2023-05-14T09:31:46.253Z,94.80
2023-05-14T09:34:48.663Z,94.77
2023-05-14T09:37:53.602Z,94.73
2023-05-14T09:40:56.439Z,94.83
2023-05-14T09:43:59.441Z,95.27
2023-05-14T09:47:02.453Z,94.63
2023-05-14T09:50:06.263Z,94.31
2023-05-14T09:53:08.863Z,94.33
2023-05-14T09:56:11.462Z,95.22
2023-05-14T09:59:14.019Z,94.83
2023-05-14T10:02:30.106Z,94.94
2023-05-14T10:05:37.077Z,95.22
2023-05-14T10:08:44.628Z,94.91
2023-05-14T10:11:52.951Z,94.77
2023-05-14T10:14:58.132Z,95.07
2023-05-14T10:18:44.264Z,94.23
2023-05-14T10:22:34.566Z,94.48
2023-05-14T10:25:39.189Z,94.57
2023-05-14T10:28:42.293Z,94.61
2023-05-14T10:31:53.432Z,94.69
2023-05-14T10:34:55.931Z,94.70
2023-05-14T10:37:59.796Z,95.09
2023-05-14T10:41:08.117Z,94.65
2023-05-14T10:44:11.809Z,94.94
2023-05-14T10:47:16.651Z,95.43
2023-05-14T10:50:19.644Z,95.51
2023-05-14T10:53:49.172Z,95.62
2023-05-14T10:56:54.156Z,94.96
2023-05-14T10:59:58.058Z,95.60
2023-05-14T11:03:00.884Z,95.44
2023-05-14T11:06:05.154Z,94.95
2023-05-14T11:09:08.028Z,95.47
2023-05-14T11:12:10.632Z,95.37
2023-05-14T11:15:16.346Z,95.02
2023-05-14T11:18:33.305Z,95.21
2023-05-14T11:21:53.145Z,94.94
2023-05-14T11:24:58.704Z,95.06
2023-05-14T11:28:13.703Z,95.11
2023-05-14T11:31:18.819Z,95.52
2023-05-14T11:34:22.740Z,95.60
2023-05-14T11:37:25.025Z,95.42
2023-05-14T11:40:27.469Z,95.17
2023-05-14T11:43:30.967Z,95.33
2023-05-14T11:46:33.133Z,95.53
2023-05-14T11:49:38.758Z,95.08
2023-05-14T11:52:41.942Z,95.08
2023-05-14T11:55:44.251Z,95.30
2023-05-14T11:58:49.860Z,95.08
2023-05-14T12:01:55.428Z,94.97
2023-05-14T12:04:58.503Z,95.04
2023-05-14T12:08:00.901Z,95.13
2023-05-14T12:11:03.738Z,95.06
2023-05-14T12:14:16.968Z,95.12
2023-05-14T12:17:21.765Z,94.97
2023-05-14T12:20:24.452Z,95.57
2023-05-14T12:23:31.177Z,95.19
2023-05-14T12:26:34.853Z,95.68
2023-05-14T12:29:39.510Z,95.43
2023-05-14T12:32:42.004Z,95.41
2023-05-14T12:35:45.345Z,95.24
2023-05-14T12:38:47.669Z,95.88
2023-05-14T12:41:49.816Z,95.52
2023-05-14T12:44:52.063Z,95.59
2023-05-14T12:47:54.826Z,95.69
2023-05-14T12:50:58.195Z,96.20
2023-05-14T12:54:00.748Z,95.97
2023-05-14T12:57:04.462Z,96.17
2023-05-14T13:00:09.903Z,96.33
2023-05-14T13:03:14.415Z,96.29
2023-05-14T13:06:16.849Z,96.30
2023-05-14T13:09:19.089Z,96.10
2023-05-14T13:12:21.447Z,95.71
2023-05-14T13:15:23.972Z,96.44
2023-05-14T13:18:26.995Z,96.47
2023-05-14T13:21:29.708Z,96.30
2023-05-14T13:24:31.887Z,96.34
2023-05-14T13:27:36.172Z,96.35
2023-05-14T13:30:38.810Z,96.07
2023-05-14T13:33:42.843Z,95.95
2023-05-14T13:36:47.395Z,95.98
2023-05-14T13:39:51.290Z,95.75
2023-05-14T13:42:56.998Z,96.06
2023-05-14T13:46:07.147Z,96.40
2023-05-14T13:49:24.401Z,95.82
2023-05-14T13:52:27.620Z,96.26
2023-05-14T13:56:06.953Z,95.84
2023-05-14T13:59:10.446Z,95.91
2023-05-14T14:02:12.940Z,95.76
2023-05-14T14:05:15.688Z,96.32
2023-05-14T14:08:24.017Z,95.91
2023-05-14T14:11:27.354Z,95.95
2023-05-14T14:14:30.028Z,95.93
2023-05-14T14:17:34.131Z,95.95
2023-05-14T14:20:36.528Z,96.33
2023-05-14T14:23:38.780Z,96.21
2023-05-14T14:26:41.006Z,96.52
2023-05-14T14:29:43.742Z,96.56
2023-05-14T14:32:47.356Z,96.27
2023-05-14T14:35:49.511Z,96.31
2023-05-14T14:38:51.725Z,96.56
2023-05-14T14:41:54.368Z,96.65
2023-05-14T14:44:56.489Z,96.41
2023-05-14T14:48:25.309Z,96.23
2023-05-14T14:51:28.031Z,96.47
2023-05-14T14:54:30.149Z,96.22
2023-05-14T14:57:32.322Z,96.67
2023-05-14T15:00:34.571Z,97.08
2023-05-14T15:03:36.905Z,95.98
2023-05-14T15:06:44.204Z,96.37
2023-05-14T15:09:46.330Z,96.61
2023-05-14T15:12:48.557Z,96.25
2023-05-14T15:15:52.449Z,96.42
2023-05-14T15:18:54.799Z,96.29
2023-05-14T15:21:57.050Z,95.97
2023-05-14T15:25:00.018Z,95.47
2023-05-14T15:28:02.110Z,95.84
2023-05-14T15:31:04.394Z,96.15
2023-05-14T15:34:07.140Z,96.42
2023-05-14T15:37:10.979Z,96.23
2023-05-14T15:40:13.513Z,96.40
2023-05-14T15:43:15.654Z,96.33
2023-05-14T15:46:17.891Z,96.48
2023-05-14T15:49:20.012Z,96.18
2023-05-14T15:52:23.257Z,96.43
2023-05-14T15:55:25.377Z,96.78
2023-05-14T15:58:28.309Z,96.07
2023-05-14T16:01:30.764Z,96.25
2023-05-14T16:04:32.872Z,96.69
2023-05-14T16:07:35.518Z,97.09
2023-05-14T16:10:37.876Z,97.08
2023-05-14T16:13:41.819Z,96.83
2023-05-14T16:16:43.999Z,97.00
2023-05-14T16:19:46.454Z,97.06
2023-05-14T16:22:48.772Z,97.20
2023-05-14T16:25:50.948Z,96.97
2023-05-14T16:28:53.160Z,97.00
2023-05-14T16:31:56.091Z,97.29
2023-05-14T16:34:58.639Z,96.83
2023-05-14T16:38:02.327Z,97.24
2023-05-14T16:41:07.336Z,97.23
2023-05-14T16:44:09.674Z,97.34
2023-05-14T16:47:11.932Z,97.42
2023-05-14T16:50:14.952Z,97.44
2023-05-14T16:53:17.124Z,96.99
2023-05-14T16:56:19.375Z,97.52
2023-05-14T16:59:21.696Z,96.93
2023-05-14T17:02:23.806Z,96.94
2023-05-14T17:05:27.037Z,97.49
2023-05-14T17:08:33.754Z,97.01
2023-05-14T17:11:36.499Z,97.48
2023-05-14T17:14:38.612Z,97.18
2023-05-14T17:17:41.575Z,97.39
2023-05-14T17:20:44.065Z,97.42
2023-05-14T17:23:46.286Z,97.75
2023-05-14T17:26:48.341Z,97.58
2023-05-14T17:29:51.409Z,97.46
2023-05-14T17:32:53.674Z,97.61
2023-05-14T17:35:55.978Z,97.75
2023-05-14T17:38:58.148Z,97.60
2023-05-14T17:42:00.793Z,97.81
2023-05-14T17:45:02.972Z,97.45
2023-05-14T17:48:05.394Z,97.69
2023-05-14T17:51:07.605Z,97.92
2023-05-14T17:54:09.795Z,97.95
2023-05-14T17:57:12.362Z,97.98
2023-05-14T18:00:14.906Z,97.58
2023-05-14T18:03:18.180Z,98.25
2023-05-14T18:06:20.539Z,97.71
2023-05-14T18:09:23.347Z,97.88
2023-05-14T18:12:26.875Z,97.97
2023-05-14T18:15:31.898Z,98.11
2023-05-14T18:18:34.482Z,98.15
2023-05-14T18:21:37.222Z,98.20
2023-05-14T18:24:39.505Z,98.37
2023-05-14T18:27:47.558Z,98.25
2023-05-14T18:30:50.313Z,98.43
2023-05-14T18:33:54.657Z,97.92
2023-05-14T18:36:57.822Z,98.04
2023-05-14T18:39:59.920Z,97.92
2023-05-14T18:43:02.457Z,98.14
2023-05-14T18:46:04.964Z,98.32
2023-05-14T18:49:07.425Z,98.46
2023-05-14T18:52:09.935Z,98.40
2023-05-14T18:55:12.380Z,98.63
2023-05-14T18:58:15.036Z,98.06
2023-05-14T19:01:17.514Z,98.40
2023-05-14T19:04:20.067Z,98.51
2023-05-14T19:07:22.950Z,98.59
2023-05-14T19:10:25.539Z,98.56
2023-05-14T19:13:28.829Z,98.53
2023-05-14T19:16:31.047Z,98.60
2023-05-14T19:19:33.622Z,98.63
2023-05-14T19:22:36.529Z,98.23
2023-05-14T19:25:38.842Z,98.72
2023-05-14T19:28:41.903Z,98.31
2023-05-14T19:31:44.127Z,98.65
2023-05-14T19:34:46.342Z,98.78
2023-05-14T19:37:48.502Z,98.84
2023-05-14T19:40:51.452Z,98.88
2023-05-14T19:43:54.034Z,98.34
2023-05-14T19:46:56.351Z,98.38
2023-05-14T19:49:58.628Z,98.47
2023-05-14T19:53:09.130Z,98.89
2023-05-14T19:56:11.473Z,98.93
2023-05-14T19:59:13.958Z,98.48
2023-05-14T20:02:18.847Z,98.85
2023-05-14T20:05:24.093Z,98.78
2023-05-14T20:08:27.078Z,98.93
2023-05-14T20:11:29.999Z,99.05
2023-05-14T20:14:32.645Z,98.62
2023-05-14T20:17:34.898Z,98.98
2023-05-14T20:20:37.761Z,98.59
2023-05-14T20:23:39.947Z,98.87
2023-05-14T20:26:42.257Z,98.91
2023-05-14T20:29:45.494Z,98.59
2023-05-14T20:32:47.596Z,98.98
2023-05-14T20:35:49.824Z,98.58
2023-05-14T20:38:52.977Z,98.77
2023-05-14T20:41:55.326Z,98.80
2023-05-14T20:44:57.586Z,98.58
2023-05-14T20:47:59.833Z,99.11
2023-05-14T20:51:02.016Z,98.68
2023-05-14T20:54:04.408Z,98.98
2023-05-14T20:57:06.981Z,99.20
2023-05-14T21:00:10.213Z,98.74
2023-05-14T21:03:12.501Z,98.60
2023-05-14T21:06:15.039Z,98.67
2023-05-14T21:09:17.196Z,98.67
2023-05-14T21:12:19.877Z,98.77
2023-05-14T21:15:22.010Z,99.06
2023-05-14T21:18:27.294Z,98.72
2023-05-14T21:21:30.736Z,99.01
2023-05-14T21:24:32.841Z,99.05
2023-05-14T21:27:35.153Z,99.07
2023-05-14T21:30:37.382Z,99.00
2023-05-14T21:33:41.002Z,98.75
2023-05-14T21:36:43.616Z,98.71
2023-05-14T21:39:46.091Z,98.57
2023-05-14T21:42:48.329Z,99.01
2023-05-14T21:45:50.756Z,98.70
2023-05-14T21:48:53.067Z,98.61
2023-05-14T21:51:55.317Z,98.97
2023-05-14T21:54:57.412Z,98.63
2023-05-14T21:58:00.173Z,98.71
2023-05-14T22:01:02.404Z,99.03
2023-05-14T22:04:05.245Z,98.89
2023-05-14T22:07:07.278Z,98.87
2023-05-14T22:10:10.051Z,99.32
2023-05-14T22:13:12.879Z,99.00
2023-05-14T22:16:15.286Z,99.34
2023-05-14T22:19:17.985Z,99.23
2023-05-14T22:22:20.177Z,99.14
2023-05-14T22:25:22.534Z,99.15
2023-05-14T22:28:24.980Z,99.52
2023-05-14T22:31:27.181Z,99.30
2023-05-14T22:34:29.218Z,99.39
2023-05-14T22:37:31.326Z,98.90
2023-05-14T22:40:33.899Z,99.30
2023-05-14T22:43:36.094Z,99.65
2023-05-14T22:46:38.633Z,99.20
2023-05-14T22:49:40.931Z,99.02
2023-05-14T22:52:43.034Z,99.47
2023-05-14T22:55:45.269Z,99.19
2023-05-14T22:58:47.968Z,99.35
2023-05-14T23:01:50.103Z,99.49
2023-05-14T23:04:52.784Z,99.60
2023-05-14T23:07:55.649Z,99.66
2023-05-14T23:10:57.800Z,99.15
2023-05-14T23:14:00.106Z,99.67
2023-05-14T23:17:02.864Z,99.56
2023-05-14T23:20:06.329Z,99.36
2023-05-14T23:23:08.640Z,99.28
2023-05-14T23:26:10.866Z,99.51
2023-05-14T23:29:13.536Z,99.93
2023-05-14T23:32:16.218Z,99.63
2023-05-14T23:35:19.173Z,99.31
2023-05-14T23:38:21.331Z,99.83
2023-05-14T23:41:23.636Z,99.51
2023-05-14T23:44:25.830Z,99.53
2023-05-14T23:47:28.246Z,99.47
2023-05-14T23:50:31.323Z,99.46
2023-05-14T23:53:33.692Z,99.41
2023-05-14T23:56:36.425Z,99.20
2023-05-14T23:59:40.340Z,99.72
